Terminal Aerodrome Forecast
Issued by NWS Chicago, IL

Home | Current Version | Previous Version | Text Only | Print | Product List | Glossary Off
Versions: 1 2 3 4 5 6 7 8 9 10 11 12 13 14 15 16 17 18 19 20 21 22 23 24 25 26 27

889
FTUS43 KLOT 201500 AAA
TAFRFD
TAF AMD
KRFD 201500Z 2015/2112 16008KT P6SM FEW015 BKN040
     FM201700 02010KT P6SM BKN040
     FM202200 03009KT P6SM BKN040
     FM210100 02006KT P6SM BKN150=

USA.gov is the U.S. government's official web portal to all federal, state and local government web resources and services.